Metar Aviation Weather Data ENHD

16°C Temp
8°C Dewpoint
% Humidity
Temperature
16 KM/H
10 MPH
9 KTS
190°
Due South

Wind Speed
Mostly Scattered
Clouds
Pressure 1021.92 (hPa) - 30.18 (in)
Visibility 6.2 (mi) - 10 (km)

Current Conditions
ENHD
Metar :ENHD 211620Z 19009KT 9999 SCT041 16/08 Q1022
Wed 21st August 18:20 pm

  Metar Aviation API Data Provided by https://www.checkwx.com/ PHP scripts by weather34.com ©2019